sensor_id;sensor_type;location;lat;lon;timestamp;P1;durP1;ratioP1;P2;durP2;ratioP2
21663;SDS011;10993;52.510;13.456;2023-07-30T00:02:49;10.90;;;6.93;;
21663;SDS011;10993;52.510;13.456;2023-07-30T00:07:50;18.95;;;11.27;;
21663;SDS011;10993;52.510;13.456;2023-07-30T00:12:50;11.48;;;7.07;;
21663;SDS011;10993;52.510;13.456;2023-07-30T00:17:52;11.65;;;6.57;;
21663;SDS011;10993;52.510;13.456;2023-07-30T00:22:52;8.77;;;6.05;;
21663;SDS011;10993;52.510;13.456;2023-07-30T00:27:52;9.07;;;5.37;;
21663;SDS011;10993;52.510;13.456;2023-07-30T00:32:54;8.33;;;5.23;;
21663;SDS011;10993;52.510;13.456;2023-07-30T00:37:54;7.60;;;5.30;;
21663;SDS011;10993;52.510;13.456;2023-07-30T00:42:55;8.40;;;4.27;;
21663;SDS011;10993;52.510;13.456;2023-07-30T00:47:56;7.00;;;4.63;;
21663;SDS011;10993;52.510;13.456;2023-07-30T00:52:57;5.68;;;4.00;;
21663;SDS011;10993;52.510;13.456;2023-07-30T00:57:57;5.38;;;3.80;;
21663;SDS011;10993;52.510;13.456;2023-07-30T01:02:59;6.10;;;4.05;;
21663;SDS011;10993;52.510;13.456;2023-07-30T01:08:00;5.13;;;3.60;;
21663;SDS011;10993;52.510;13.456;2023-07-30T01:13:01;5.20;;;3.97;;
21663;SDS011;10993;52.510;13.456;2023-07-30T01:18:04;8.50;;;4.78;;
21663;SDS011;10993;52.510;13.456;2023-07-30T01:23:06;9.38;;;5.40;;
21663;SDS011;10993;52.510;13.456;2023-07-30T01:28:06;10.48;;;5.28;;
21663;SDS011;10993;52.510;13.456;2023-07-30T01:33:11;6.68;;;4.30;;
21663;SDS011;10993;52.510;13.456;2023-07-30T01:38:13;5.30;;;3.67;;
21663;SDS011;10993;52.510;13.456;2023-07-30T01:43:14;5.78;;;4.13;;
21663;SDS011;10993;52.510;13.456;2023-07-30T01:48:15;7.72;;;4.10;;
21663;SDS011;10993;52.510;13.456;2023-07-30T01:53:16;7.50;;;4.57;;
21663;SDS011;10993;52.510;13.456;2023-07-30T01:58:17;8.10;;;4.80;;
21663;SDS011;10993;52.510;13.456;2023-07-30T02:03:17;7.05;;;5.00;;
21663;SDS011;10993;52.510;13.456;2023-07-30T02:08:19;7.07;;;4.70;;
21663;SDS011;10993;52.510;13.456;2023-07-30T02:13:19;7.00;;;4.30;;
21663;SDS011;10993;52.510;13.456;2023-07-30T02:18:19;5.50;;;3.80;;
21663;SDS011;10993;52.510;13.456;2023-07-30T02:23:21;7.13;;;5.13;;
21663;SDS011;10993;52.510;13.456;2023-07-30T02:28:21;7.88;;;5.00;;
21663;SDS011;10993;52.510;13.456;2023-07-30T02:33:22;7.78;;;5.45;;
21663;SDS011;10993;52.510;13.456;2023-07-30T02:38:23;7.57;;;5.13;;
21663;SDS011;10993;52.510;13.456;2023-07-30T02:43:24;6.25;;;4.43;;
21663;SDS011;10993;52.510;13.456;2023-07-30T02:48:24;6.70;;;4.67;;
21663;SDS011;10993;52.510;13.456;2023-07-30T02:53:26;7.82;;;4.60;;
21663;SDS011;10993;52.510;13.456;2023-07-30T02:58:26;7.10;;;4.93;;
21663;SDS011;10993;52.510;13.456;2023-07-30T03:03:26;7.60;;;4.60;;
21663;SDS011;10993;52.510;13.456;2023-07-30T03:08:28;6.72;;;4.68;;
21663;SDS011;10993;52.510;13.456;2023-07-30T03:13:28;6.68;;;4.75;;
21663;SDS011;10993;52.510;13.456;2023-07-30T03:18:29;9.03;;;5.63;;
21663;SDS011;10993;52.510;13.456;2023-07-30T03:23:30;7.97;;;5.50;;
21663;SDS011;10993;52.510;13.456;2023-07-30T03:28:31;9.02;;;5.90;;
21663;SDS011;10993;52.510;13.456;2023-07-30T03:33:32;7.00;;;5.43;;
21663;SDS011;10993;52.510;13.456;2023-07-30T03:38:34;8.60;;;5.15;;
21663;SDS011;10993;52.510;13.456;2023-07-30T03:43:35;10.13;;;5.85;;
21663;SDS011;10993;52.510;13.456;2023-07-30T03:48:35;8.63;;;5.45;;
21663;SDS011;10993;52.510;13.456;2023-07-30T03:53:37;6.88;;;5.05;;
21663;SDS011;10993;52.510;13.456;2023-07-30T03:58:37;9.63;;;5.93;;
21663;SDS011;10993;52.510;13.456;2023-07-30T04:03:38;7.25;;;5.45;;
21663;SDS011;10993;52.510;13.456;2023-07-30T04:08:39;8.20;;;6.10;;
21663;SDS011;10993;52.510;13.456;2023-07-30T04:13:40;7.00;;;5.00;;
21663;SDS011;10993;52.510;13.456;2023-07-30T04:18:41;5.70;;;4.35;;
21663;SDS011;10993;52.510;13.456;2023-07-30T04:23:43;5.30;;;3.90;;
21663;SDS011;10993;52.510;13.456;2023-07-30T04:28:43;4.85;;;3.47;;
21663;SDS011;10993;52.510;13.456;2023-07-30T04:33:44;5.27;;;3.90;;
21663;SDS011;10993;52.510;13.456;2023-07-30T04:38:45;4.40;;;3.25;;
21663;SDS011;10993;52.510;13.456;2023-07-30T04:43:46;4.72;;;2.92;;
21663;SDS011;10993;52.510;13.456;2023-07-30T04:48:46;4.90;;;2.85;;
21663;SDS011;10993;52.510;13.456;2023-07-30T04:53:48;4.50;;;2.58;;
21663;SDS011;10993;52.510;13.456;2023-07-30T04:58:48;4.28;;;2.35;;
21663;SDS011;10993;52.510;13.456;2023-07-30T05:03:49;3.20;;;1.97;;
21663;SDS011;10993;52.510;13.456;2023-07-30T05:08:50;3.53;;;2.10;;
21663;SDS011;10993;52.510;13.456;2023-07-30T05:13:51;3.00;;;2.10;;
21663;SDS011;10993;52.510;13.456;2023-07-30T05:18:51;3.40;;;2.03;;
21663;SDS011;10993;52.510;13.456;2023-07-30T05:23:53;3.27;;;1.87;;
21663;SDS011;10993;52.510;13.456;2023-07-30T05:28:53;3.13;;;2.10;;
21663;SDS011;10993;52.510;13.456;2023-07-30T05:33:53;2.50;;;1.70;;
21663;SDS011;10993;52.510;13.456;2023-07-30T05:38:55;3.42;;;1.50;;
21663;SDS011;10993;52.510;13.456;2023-07-30T05:43:55;2.60;;;1.30;;
21663;SDS011;10993;52.510;13.456;2023-07-30T05:48:56;3.67;;;2.17;;
21663;SDS011;10993;52.510;13.456;2023-07-30T05:53:58;3.35;;;1.95;;
21663;SDS011;10993;52.510;13.456;2023-07-30T05:58:58;3.28;;;1.50;;
21663;SDS011;10993;52.510;13.456;2023-07-30T06:03:58;3.07;;;1.80;;
21663;SDS011;10993;52.510;13.456;2023-07-30T06:09:00;1.77;;;1.13;;
21663;SDS011;10993;52.510;13.456;2023-07-30T06:14:00;2.92;;;1.50;;
21663;SDS011;10993;52.510;13.456;2023-07-30T06:19:00;2.27;;;1.50;;
21663;SDS011;10993;52.510;13.456;2023-07-30T06:24:02;3.80;;;2.47;;
21663;SDS011;10993;52.510;13.456;2023-07-30T06:29:03;2.85;;;1.95;;
21663;SDS011;10993;52.510;13.456;2023-07-30T06:34:03;5.10;;;2.20;;
21663;SDS011;10993;52.510;13.456;2023-07-30T06:39:06;2.33;;;1.40;;
21663;SDS011;10993;52.510;13.456;2023-07-30T06:44:06;2.65;;;1.70;;
21663;SDS011;10993;52.510;13.456;2023-07-30T06:49:06;1.63;;;1.23;;
21663;SDS011;10993;52.510;13.456;2023-07-30T06:54:08;1.90;;;1.23;;
21663;SDS011;10993;52.510;13.456;2023-07-30T06:59:08;2.33;;;1.42;;
21663;SDS011;10993;52.510;13.456;2023-07-30T07:04:09;2.42;;;1.27;;
21663;SDS011;10993;52.510;13.456;2023-07-30T07:09:10;3.53;;;1.90;;
21663;SDS011;10993;52.510;13.456;2023-07-30T07:14:11;2.72;;;1.50;;
21663;SDS011;10993;52.510;13.456;2023-07-30T07:19:11;2.33;;;1.40;;
21663;SDS011;10993;52.510;13.456;2023-07-30T07:24:13;4.00;;;1.57;;
21663;SDS011;10993;52.510;13.456;2023-07-30T07:29:13;2.90;;;1.58;;
21663;SDS011;10993;52.510;13.456;2023-07-30T07:34:14;4.28;;;1.50;;
21663;SDS011;10993;52.510;13.456;2023-07-30T07:39:15;2.80;;;1.63;;
21663;SDS011;10993;52.510;13.456;2023-07-30T07:44:16;3.03;;;1.63;;
21663;SDS011;10993;52.510;13.456;2023-07-30T07:49:16;3.70;;;1.50;;
21663;SDS011;10993;52.510;13.456;2023-07-30T07:54:18;6.03;;;1.80;;
21663;SDS011;10993;52.510;13.456;2023-07-30T07:59:18;2.25;;;1.30;;
21663;SDS011;10993;52.510;13.456;2023-07-30T08:04:19;5.53;;;2.65;;
21663;SDS011;10993;52.510;13.456;2023-07-30T08:09:22;3.85;;;1.70;;
21663;SDS011;10993;52.510;13.456;2023-07-30T08:14:23;7.28;;;4.55;;
21663;SDS011;10993;52.510;13.456;2023-07-30T08:19:23;3.57;;;1.80;;
21663;SDS011;10993;52.510;13.456;2023-07-30T08:24:25;3.40;;;1.73;;
21663;SDS011;10993;52.510;13.456;2023-07-30T08:29:26;2.60;;;1.20;;
21663;SDS011;10993;52.510;13.456;2023-07-30T08:34:26;3.63;;;1.50;;
21663;SDS011;10993;52.510;13.456;2023-07-30T08:39:28;3.15;;;1.30;;
21663;SDS011;10993;52.510;13.456;2023-07-30T08:44:28;12.50;;;2.22;;
21663;SDS011;10993;52.510;13.456;2023-07-30T08:49:29;2.95;;;1.40;;
21663;SDS011;10993;52.510;13.456;2023-07-30T08:54:34;2.75;;;1.55;;
21663;SDS011;10993;52.510;13.456;2023-07-30T08:59:37;5.53;;;1.40;;
21663;SDS011;10993;52.510;13.456;2023-07-30T09:04:42;5.97;;;1.52;;
21663;SDS011;10993;52.510;13.456;2023-07-30T09:09:49;2.42;;;1.30;;
21663;SDS011;10993;52.510;13.456;2023-07-30T09:14:50;2.92;;;1.33;;
21663;SDS011;10993;52.510;13.456;2023-07-30T09:19:51;3.63;;;1.35;;
21663;SDS011;10993;52.510;13.456;2023-07-30T09:24:53;2.22;;;1.10;;
21663;SDS011;10993;52.510;13.456;2023-07-30T09:29:55;4.18;;;1.20;;
21663;SDS011;10993;52.510;13.456;2023-07-30T09:34:59;2.58;;;1.20;;
21663;SDS011;10993;52.510;13.456;2023-07-30T09:40:07;5.72;;;2.45;;
21663;SDS011;10993;52.510;13.456;2023-07-30T09:45:16;3.05;;;1.25;;
21663;SDS011;10993;52.510;13.456;2023-07-30T09:50:17;4.65;;;2.47;;
21663;SDS011;10993;52.510;13.456;2023-07-30T09:55:19;2.88;;;1.20;;
21663;SDS011;10993;52.510;13.456;2023-07-30T10:00:19;5.13;;;2.30;;
21663;SDS011;10993;52.510;13.456;2023-07-30T10:05:20;4.90;;;1.83;;
21663;SDS011;10993;52.510;13.456;2023-07-30T10:10:26;5.85;;;2.95;;
21663;SDS011;10993;52.510;13.456;2023-07-30T10:15:29;3.40;;;1.63;;
21663;SDS011;10993;52.510;13.456;2023-07-30T10:20:30;5.95;;;2.55;;
21663;SDS011;10993;52.510;13.456;2023-07-30T10:25:43;4.60;;;1.33;;
21663;SDS011;10993;52.510;13.456;2023-07-30T10:30:45;2.60;;;1.58;;
21663;SDS011;10993;52.510;13.456;2023-07-30T10:35:55;4.30;;;2.05;;
21663;SDS011;10993;52.510;13.456;2023-07-30T10:41:01;3.28;;;1.48;;
21663;SDS011;10993;52.510;13.456;2023-07-30T10:46:04;2.60;;;1.00;;
21663;SDS011;10993;52.510;13.456;2023-07-30T10:51:05;4.65;;;2.22;;
21663;SDS011;10993;52.510;13.456;2023-07-30T10:56:07;4.82;;;2.00;;
21663;SDS011;10993;52.510;13.456;2023-07-30T11:01:09;4.43;;;1.88;;
21663;SDS011;10993;52.510;13.456;2023-07-30T11:06:09;17.33;;;10.07;;
21663;SDS011;10993;52.510;13.456;2023-07-30T11:11:11;4.87;;;1.97;;
21663;SDS011;10993;52.510;13.456;2023-07-30T11:16:12;3.80;;;2.00;;
21663;SDS011;10993;52.510;13.456;2023-07-30T11:21:14;9.52;;;4.20;;
21663;SDS011;10993;52.510;13.456;2023-07-30T11:26:20;4.80;;;1.98;;
21663;SDS011;10993;52.510;13.456;2023-07-30T11:31:20;4.60;;;1.50;;
21663;SDS011;10993;52.510;13.456;2023-07-30T11:36:22;2.67;;;1.30;;
21663;SDS011;10993;52.510;13.456;2023-07-30T11:41:27;5.30;;;2.30;;
21663;SDS011;10993;52.510;13.456;2023-07-30T11:46:27;3.50;;;1.52;;
21663;SDS011;10993;52.510;13.456;2023-07-30T11:51:29;5.03;;;1.42;;
21663;SDS011;10993;52.510;13.456;2023-07-30T11:56:31;2.43;;;1.27;;
21663;SDS011;10993;52.510;13.456;2023-07-30T12:01:36;3.85;;;1.20;;
21663;SDS011;10993;52.510;13.456;2023-07-30T12:06:39;3.50;;;1.50;;
21663;SDS011;10993;52.510;13.456;2023-07-30T12:11:45;4.20;;;1.50;;
21663;SDS011;10993;52.510;13.456;2023-07-30T12:16:47;2.78;;;1.35;;
21663;SDS011;10993;52.510;13.456;2023-07-30T12:21:47;4.60;;;1.38;;
21663;SDS011;10993;52.510;13.456;2023-07-30T12:26:49;3.72;;;1.80;;
21663;SDS011;10993;52.510;13.456;2023-07-30T12:31:49;5.43;;;1.98;;
21663;SDS011;10993;52.510;13.456;2023-07-30T12:36:53;4.38;;;1.65;;
21663;SDS011;10993;52.510;13.456;2023-07-30T12:41:55;4.13;;;2.35;;
21663;SDS011;10993;52.510;13.456;2023-07-30T12:46:55;3.55;;;1.77;;
21663;SDS011;10993;52.510;13.456;2023-07-30T12:51:55;6.77;;;1.50;;
21663;SDS011;10993;52.510;13.456;2023-07-30T12:56:57;6.50;;;2.20;;
21663;SDS011;10993;52.510;13.456;2023-07-30T13:01:58;3.30;;;1.35;;
21663;SDS011;10993;52.510;13.456;2023-07-30T13:06:58;2.58;;;1.27;;
21663;SDS011;10993;52.510;13.456;2023-07-30T13:12:00;4.47;;;1.63;;
21663;SDS011;10993;52.510;13.456;2023-07-30T13:17:00;3.08;;;1.30;;
21663;SDS011;10993;52.510;13.456;2023-07-30T13:22:00;7.43;;;3.17;;
21663;SDS011;10993;52.510;13.456;2023-07-30T13:27:02;4.57;;;2.10;;
21663;SDS011;10993;52.510;13.456;2023-07-30T13:32:03;3.90;;;1.70;;
21663;SDS011;10993;52.510;13.456;2023-07-30T13:37:04;3.45;;;1.55;;
21663;SDS011;10993;52.510;13.456;2023-07-30T13:42:06;3.58;;;1.73;;
21663;SDS011;10993;52.510;13.456;2023-07-30T13:47:07;2.35;;;1.13;;
21663;SDS011;10993;52.510;13.456;2023-07-30T13:52:07;4.67;;;1.60;;
21663;SDS011;10993;52.510;13.456;2023-07-30T13:57:09;4.05;;;2.08;;
21663;SDS011;10993;52.510;13.456;2023-07-30T14:02:09;2.85;;;1.77;;
21663;SDS011;10993;52.510;13.456;2023-07-30T14:07:09;4.93;;;1.95;;
21663;SDS011;10993;52.510;13.456;2023-07-30T14:12:11;3.30;;;1.73;;
21663;SDS011;10993;52.510;13.456;2023-07-30T14:17:11;2.95;;;1.00;;
21663;SDS011;10993;52.510;13.456;2023-07-30T14:22:12;4.53;;;1.17;;
21663;SDS011;10993;52.510;13.456;2023-07-30T14:27:13;4.40;;;1.77;;
21663;SDS011;10993;52.510;13.456;2023-07-30T14:32:14;5.47;;;2.38;;
21663;SDS011;10993;52.510;13.456;2023-07-30T14:37:15;4.13;;;1.40;;
21663;SDS011;10993;52.510;13.456;2023-07-30T14:42:16;3.38;;;1.52;;
21663;SDS011;10993;52.510;13.456;2023-07-30T14:47:17;5.88;;;1.60;;
21663;SDS011;10993;52.510;13.456;2023-07-30T14:52:17;4.38;;;2.25;;
21663;SDS011;10993;52.510;13.456;2023-07-30T14:57:19;4.40;;;1.42;;
21663;SDS011;10993;52.510;13.456;2023-07-30T15:02:20;4.75;;;1.77;;
21663;SDS011;10993;52.510;13.456;2023-07-30T15:07:20;3.38;;;1.58;;
21663;SDS011;10993;52.510;13.456;2023-07-30T15:12:26;3.35;;;1.65;;
21663;SDS011;10993;52.510;13.456;2023-07-30T15:17:26;4.45;;;1.77;;
21663;SDS011;10993;52.510;13.456;2023-07-30T15:22:26;5.70;;;2.20;;
21663;SDS011;10993;52.510;13.456;2023-07-30T15:27:28;6.07;;;2.10;;
21663;SDS011;10993;52.510;13.456;2023-07-30T15:32:29;6.88;;;3.20;;
21663;SDS011;10993;52.510;13.456;2023-07-30T15:37:30;5.22;;;2.55;;
21663;SDS011;10993;52.510;13.456;2023-07-30T15:42:33;5.47;;;2.30;;
21663;SDS011;10993;52.510;13.456;2023-07-30T15:47:34;4.97;;;2.17;;
21663;SDS011;10993;52.510;13.456;2023-07-30T15:52:34;4.87;;;1.90;;
21663;SDS011;10993;52.510;13.456;2023-07-30T15:57:36;3.23;;;2.00;;
21663;SDS011;10993;52.510;13.456;2023-07-30T16:02:36;5.85;;;1.90;;
21663;SDS011;10993;52.510;13.456;2023-07-30T16:07:36;7.90;;;2.47;;
21663;SDS011;10993;52.510;13.456;2023-07-30T16:12:38;4.00;;;1.55;;
21663;SDS011;10993;52.510;13.456;2023-07-30T16:17:38;3.78;;;1.50;;
21663;SDS011;10993;52.510;13.456;2023-07-30T16:22:39;5.73;;;1.70;;
21663;SDS011;10993;52.510;13.456;2023-07-30T16:27:41;7.63;;;1.60;;
21663;SDS011;10993;52.510;13.456;2023-07-30T16:32:41;3.85;;;1.75;;
21663;SDS011;10993;52.510;13.456;2023-07-30T16:37:43;3.73;;;1.93;;
21663;SDS011;10993;52.510;13.456;2023-07-30T16:42:45;5.32;;;1.98;;
21663;SDS011;10993;52.510;13.456;2023-07-30T16:47:45;4.10;;;1.95;;
21663;SDS011;10993;52.510;13.456;2023-07-30T16:52:46;4.43;;;2.25;;
21663;SDS011;10993;52.510;13.456;2023-07-30T16:57:48;5.88;;;2.20;;
21663;SDS011;10993;52.510;13.456;2023-07-30T17:02:48;4.63;;;2.03;;
21663;SDS011;10993;52.510;13.456;2023-07-30T17:07:49;4.47;;;2.10;;
21663;SDS011;10993;52.510;13.456;2023-07-30T17:12:51;6.95;;;3.22;;
21663;SDS011;10993;52.510;13.456;2023-07-30T17:17:51;4.75;;;2.10;;
21663;SDS011;10993;52.510;13.456;2023-07-30T17:22:51;4.50;;;1.70;;
21663;SDS011;10993;52.510;13.456;2023-07-30T17:27:53;4.70;;;2.17;;
21663;SDS011;10993;52.510;13.456;2023-07-30T17:32:54;4.72;;;1.85;;
21663;SDS011;10993;52.510;13.456;2023-07-30T17:37:55;5.32;;;2.40;;
21663;SDS011;10993;52.510;13.456;2023-07-30T17:42:57;4.82;;;1.88;;
21663;SDS011;10993;52.510;13.456;2023-07-30T17:47:57;7.80;;;3.35;;
21663;SDS011;10993;52.510;13.456;2023-07-30T17:52:58;5.55;;;2.83;;
21663;SDS011;10993;52.510;13.456;2023-07-30T17:57:59;5.13;;;2.50;;
21663;SDS011;10993;52.510;13.456;2023-07-30T18:03:00;4.65;;;2.25;;
21663;SDS011;10993;52.510;13.456;2023-07-30T18:08:00;4.93;;;2.40;;
21663;SDS011;10993;52.510;13.456;2023-07-30T18:13:02;5.28;;;2.40;;
21663;SDS011;10993;52.510;13.456;2023-07-30T18:18:03;6.22;;;2.55;;
21663;SDS011;10993;52.510;13.456;2023-07-30T18:23:03;4.97;;;2.20;;
21663;SDS011;10993;52.510;13.456;2023-07-30T18:28:05;6.45;;;3.67;;
21663;SDS011;10993;52.510;13.456;2023-07-30T18:33:06;6.28;;;1.95;;
21663;SDS011;10993;52.510;13.456;2023-07-30T19:31:28;7.43;;;3.25;;
21663;SDS011;10993;52.510;13.456;2023-07-30T19:37:11;7.75;;;2.92;;
21663;SDS011;10993;52.510;13.456;2023-07-30T19:43:01;7.15;;;2.97;;
21663;SDS011;10993;52.510;13.456;2023-07-30T19:54:50;8.90;;;3.13;;
21663;SDS011;10993;52.510;13.456;2023-07-30T19:59:58;10.57;;;4.15;;
21663;SDS011;10993;52.510;13.456;2023-07-30T20:05:22;10.18;;;3.80;;
21663;SDS011;10993;52.510;13.456;2023-07-30T20:10:26;6.80;;;3.13;;
21663;SDS011;10993;52.510;13.456;2023-07-30T20:15:31;4.97;;;2.72;;
21663;SDS011;10993;52.510;13.456;2023-07-30T20:20:33;6.28;;;2.97;;
21663;SDS011;10993;52.510;13.456;2023-07-30T20:25:37;7.38;;;2.72;;
21663;SDS011;10993;52.510;13.456;2023-07-30T20:30:38;6.05;;;3.22;;
21663;SDS011;10993;52.510;13.456;2023-07-30T20:35:40;6.00;;;3.35;;
21663;SDS011;10993;52.510;13.456;2023-07-30T20:40:44;8.10;;;3.20;;
21663;SDS011;10993;52.510;13.456;2023-07-30T20:45:45;7.57;;;3.80;;
21663;SDS011;10993;52.510;13.456;2023-07-30T20:50:55;7.28;;;3.33;;
21663;SDS011;10993;52.510;13.456;2023-07-30T20:56:00;13.52;;;4.68;;
21663;SDS011;10993;52.510;13.456;2023-07-30T21:01:02;8.25;;;4.57;;
21663;SDS011;10993;52.510;13.456;2023-07-30T21:06:04;6.90;;;3.65;;
21663;SDS011;10993;52.510;13.456;2023-07-30T21:11:07;10.13;;;4.93;;
21663;SDS011;10993;52.510;13.456;2023-07-30T21:16:08;9.75;;;4.75;;
21663;SDS011;10993;52.510;13.456;2023-07-30T21:21:09;13.02;;;6.28;;
21663;SDS011;10993;52.510;13.456;2023-07-30T21:26:12;14.15;;;5.55;;
21663;SDS011;10993;52.510;13.456;2023-07-30T21:31:13;17.88;;;7.90;;
21663;SDS011;10993;52.510;13.456;2023-07-30T21:36:14;10.60;;;5.65;;
21663;SDS011;10993;52.510;13.456;2023-07-30T21:41:17;9.13;;;4.35;;
21663;SDS011;10993;52.510;13.456;2023-07-30T21:46:17;8.77;;;4.25;;
21663;SDS011;10993;52.510;13.456;2023-07-30T21:51:20;5.57;;;3.55;;
21663;SDS011;10993;52.510;13.456;2023-07-30T21:56:24;8.85;;;3.13;;
21663;SDS011;10993;52.510;13.456;2023-07-30T22:01:24;5.55;;;2.72;;
21663;SDS011;10993;52.510;13.456;2023-07-30T22:06:25;19.52;;;9.20;;
21663;SDS011;10993;52.510;13.456;2023-07-30T22:17:05;6.85;;;2.20;;
21663;SDS011;10993;52.510;13.456;2023-07-30T22:22:05;3.65;;;1.80;;
21663;SDS011;10993;52.510;13.456;2023-07-30T22:27:06;4.15;;;1.58;;
21663;SDS011;10993;52.510;13.456;2023-07-30T22:32:07;5.13;;;1.80;;
21663;SDS011;10993;52.510;13.456;2023-07-30T22:37:08;8.40;;;1.60;;
21663;SDS011;10993;52.510;13.456;2023-07-30T22:42:08;5.87;;;2.17;;
21663;SDS011;10993;52.510;13.456;2023-07-30T22:47:10;7.93;;;3.23;;
21663;SDS011;10993;52.510;13.456;2023-07-30T22:52:10;5.88;;;2.40;;
21663;SDS011;10993;52.510;13.456;2023-07-30T22:57:11;6.22;;;2.10;;
21663;SDS011;10993;52.510;13.456;2023-07-30T23:02:12;4.30;;;1.65;;
21663;SDS011;10993;52.510;13.456;2023-07-30T23:07:13;4.55;;;1.70;;
21663;SDS011;10993;52.510;13.456;2023-07-30T23:12:13;3.60;;;1.67;;
21663;SDS011;10993;52.510;13.456;2023-07-30T23:17:15;4.70;;;1.85;;
21663;SDS011;10993;52.510;13.456;2023-07-30T23:22:15;4.53;;;1.55;;
21663;SDS011;10993;52.510;13.456;2023-07-30T23:27:15;4.17;;;1.90;;
21663;SDS011;10993;52.510;13.456;2023-07-30T23:32:17;5.63;;;1.93;;
21663;SDS011;10993;52.510;13.456;2023-07-30T23:37:17;2.97;;;1.45;;
21663;SDS011;10993;52.510;13.456;2023-07-30T23:42:18;3.20;;;1.10;;
21663;SDS011;10993;52.510;13.456;2023-07-30T23:47:19;3.40;;;1.58;;
21663;SDS011;10993;52.510;13.456;2023-07-30T23:52:20;6.05;;;1.77;;
21663;SDS011;10993;52.510;13.456;2023-07-30T23:57:20;4.72;;;1.73;;
